sensor_id;sensor_type;location;lat;lon;timestamp;pressure;altitude;pressure_sealevel;temperature;humidity
8653;BME280;4364;52.426;9.424;2023-04-28T00:00:17;101179.81;;;6.78;56.90
8653;BME280;4364;52.426;9.424;2023-04-28T00:02:44;101182.25;;;6.80;57.39
8653;BME280;4364;52.426;9.424;2023-04-28T00:05:13;101191.53;;;6.84;57.16
8653;BME280;4364;52.426;9.424;2023-04-28T00:07:40;101189.41;;;6.86;57.19
8653;BME280;4364;52.426;9.424;2023-04-28T00:10:07;101187.28;;;6.88;56.41
8653;BME280;4364;52.426;9.424;2023-04-28T00:12:33;101180.81;;;6.89;56.71
8653;BME280;4364;52.426;9.424;2023-04-28T00:15:01;101175.19;;;6.91;57.16
8653;BME280;4364;52.426;9.424;2023-04-28T00:17:29;101168.56;;;6.98;55.79
8653;BME280;4364;52.426;9.424;2023-04-28T00:19:56;101169.88;;;6.96;55.80
8653;BME280;4364;52.426;9.424;2023-04-28T00:22:22;101164.22;;;6.97;56.02
8653;BME280;4364;52.426;9.424;2023-04-28T00:24:49;101158.66;;;7.04;55.08
8653;BME280;4364;52.426;9.424;2023-04-28T00:27:16;101150.31;;;7.05;54.56
8653;BME280;4364;52.426;9.424;2023-04-28T00:29:43;101150.78;;;7.02;55.15
8653;BME280;4364;52.426;9.424;2023-04-28T00:32:09;101147.03;;;7.03;54.85
8653;BME280;4364;52.426;9.424;2023-04-28T00:34:36;101151.38;;;7.04;55.27
8653;BME280;4364;52.426;9.424;2023-04-28T00:37:02;101140.72;;;7.15;54.57
8653;BME280;4364;52.426;9.424;2023-04-28T00:39:29;101148.94;;;7.20;54.18
8653;BME280;4364;52.426;9.424;2023-04-28T00:41:56;101143.44;;;7.15;54.15
8653;BME280;4364;52.426;9.424;2023-04-28T00:44:22;101136.66;;;7.12;54.96
8653;BME280;4364;52.426;9.424;2023-04-28T00:46:49;101138.47;;;7.23;54.61
8653;BME280;4364;52.426;9.424;2023-04-28T00:49:16;101140.19;;;7.30;54.00
8653;BME280;4364;52.426;9.424;2023-04-28T00:51:42;101132.69;;;7.20;54.40
8653;BME280;4364;52.426;9.424;2023-04-28T00:54:12;101126.88;;;7.11;54.93
8653;BME280;4364;52.426;9.424;2023-04-28T00:56:39;101122.31;;;7.12;54.73
8653;BME280;4364;52.426;9.424;2023-04-28T00:59:06;101125.59;;;7.14;55.42
8653;BME280;4364;52.426;9.424;2023-04-28T01:01:33;101122.72;;;7.20;54.99
8653;BME280;4364;52.426;9.424;2023-04-28T01:04:00;101117.16;;;7.27;54.21
8653;BME280;4364;52.426;9.424;2023-04-28T01:06:28;101114.03;;;7.18;55.06
8653;BME280;4364;52.426;9.424;2023-04-28T01:08:58;101104.75;;;7.14;55.32
8653;BME280;4364;52.426;9.424;2023-04-28T01:11:25;101106.75;;;7.19;55.19
8653;BME280;4364;52.426;9.424;2023-04-28T01:14:02;101112.63;;;7.16;55.93
8653;BME280;4364;52.426;9.424;2023-04-28T01:16:33;101108.72;;;7.23;55.71
8653;BME280;4364;52.426;9.424;2023-04-28T01:19:01;101102.56;;;7.28;55.11
8653;BME280;4364;52.426;9.424;2023-04-28T01:21:33;101103.22;;;7.18;55.26
8653;BME280;4364;52.426;9.424;2023-04-28T01:24:08;101098.63;;;7.19;56.00
8653;BME280;4364;52.426;9.424;2023-04-28T01:26:34;101100.00;;;7.21;55.14
8653;BME280;4364;52.426;9.424;2023-04-28T01:29:01;101093.69;;;7.16;55.68
8653;BME280;4364;52.426;9.424;2023-04-28T01:31:28;101097.47;;;7.15;55.86
8653;BME280;4364;52.426;9.424;2023-04-28T01:33:58;101101.97;;;7.26;55.66
8653;BME280;4364;52.426;9.424;2023-04-28T01:36:26;101096.50;;;7.21;55.67
8653;BME280;4364;52.426;9.424;2023-04-28T01:38:54;101099.19;;;7.21;56.08
8653;BME280;4364;52.426;9.424;2023-04-28T01:41:20;101086.88;;;7.13;56.04
8653;BME280;4364;52.426;9.424;2023-04-28T01:43:47;101079.75;;;7.07;56.46
8653;BME280;4364;52.426;9.424;2023-04-28T01:46:14;101079.69;;;7.02;57.28
8653;BME280;4364;52.426;9.424;2023-04-28T01:48:41;101073.94;;;6.98;57.25
8653;BME280;4364;52.426;9.424;2023-04-28T01:51:07;101069.09;;;7.00;57.74
8653;BME280;4364;52.426;9.424;2023-04-28T01:53:37;101059.66;;;7.03;57.13
8653;BME280;4364;52.426;9.424;2023-04-28T01:56:03;101061.81;;;7.01;57.87
8653;BME280;4364;52.426;9.424;2023-04-28T01:58:30;101061.81;;;7.01;57.41
8653;BME280;4364;52.426;9.424;2023-04-28T02:00:57;101063.13;;;6.98;57.92
8653;BME280;4364;52.426;9.424;2023-04-28T02:03:24;101053.22;;;7.04;57.23
8653;BME280;4364;52.426;9.424;2023-04-28T02:05:51;101052.66;;;7.19;56.85
8653;BME280;4364;52.426;9.424;2023-04-28T02:08:17;101047.22;;;7.02;57.40
8653;BME280;4364;52.426;9.424;2023-04-28T02:10:44;101048.53;;;7.16;56.50
8653;BME280;4364;52.426;9.424;2023-04-28T02:13:10;101040.66;;;7.15;56.38
8653;BME280;4364;52.426;9.424;2023-04-28T02:15:41;101035.66;;;7.07;56.69
8653;BME280;4364;52.426;9.424;2023-04-28T02:18:08;101036.41;;;7.02;56.81
8653;BME280;4364;52.426;9.424;2023-04-28T02:20:38;101030.00;;;6.91;56.79
8653;BME280;4364;52.426;9.424;2023-04-28T02:23:06;101036.41;;;6.85;57.66
8653;BME280;4364;52.426;9.424;2023-04-28T02:25:33;101029.69;;;7.04;56.86
8653;BME280;4364;52.426;9.424;2023-04-28T02:27:59;101022.56;;;6.98;56.95
8653;BME280;4364;52.426;9.424;2023-04-28T02:30:26;101022.91;;;7.02;57.47
8653;BME280;4364;52.426;9.424;2023-04-28T02:32:54;101020.75;;;7.04;57.15
8653;BME280;4364;52.426;9.424;2023-04-28T02:35:21;101011.91;;;7.09;57.49
8653;BME280;4364;52.426;9.424;2023-04-28T02:37:47;101012.16;;;6.90;57.96
8653;BME280;4364;52.426;9.424;2023-04-28T02:40:14;101017.19;;;6.86;57.99
8653;BME280;4364;52.426;9.424;2023-04-28T02:42:40;101007.81;;;6.89;58.12
8653;BME280;4364;52.426;9.424;2023-04-28T02:45:07;101010.50;;;6.89;58.25
8653;BME280;4364;52.426;9.424;2023-04-28T02:47:33;101012.16;;;6.90;58.64
8653;BME280;4364;52.426;9.424;2023-04-28T02:50:01;101014.09;;;6.95;57.97
8653;BME280;4364;52.426;9.424;2023-04-28T02:52:28;100998.88;;;6.89;58.64
8653;BME280;4364;52.426;9.424;2023-04-28T02:54:54;100994.84;;;6.91;58.35
8653;BME280;4364;52.426;9.424;2023-04-28T02:57:23;100991.81;;;6.88;58.66
8653;BME280;4364;52.426;9.424;2023-04-28T02:59:50;100992.78;;;6.81;58.84
8653;BME280;4364;52.426;9.424;2023-04-28T03:02:16;100984.59;;;6.93;58.88
8653;BME280;4364;52.426;9.424;2023-04-28T03:04:43;100992.78;;;6.81;59.20
8653;BME280;4364;52.426;9.424;2023-04-28T03:07:10;100975.03;;;6.85;59.22
8653;BME280;4364;52.426;9.424;2023-04-28T03:09:36;100973.38;;;6.84;59.47
8653;BME280;4364;52.426;9.424;2023-04-28T03:12:03;100979.88;;;6.83;59.54
8653;BME280;4364;52.426;9.424;2023-04-28T03:14:31;100981.66;;;6.78;59.19
8653;BME280;4364;52.426;9.424;2023-04-28T03:16:57;100963.81;;;6.77;59.31
8653;BME280;4364;52.426;9.424;2023-04-28T03:19:24;100975.13;;;6.74;59.65
8653;BME280;4364;52.426;9.424;2023-04-28T03:21:51;100970.91;;;6.66;59.57
8653;BME280;4364;52.426;9.424;2023-04-28T03:24:18;100967.97;;;6.67;59.66
8653;BME280;4364;52.426;9.424;2023-04-28T03:26:44;100965.28;;;6.67;59.60
8653;BME280;4364;52.426;9.424;2023-04-28T03:29:11;100963.88;;;6.65;59.60
8653;BME280;4364;52.426;9.424;2023-04-28T03:31:37;100960.91;;;6.66;59.77
8653;BME280;4364;52.426;9.424;2023-04-28T03:34:04;100956.69;;;6.71;59.14
8653;BME280;4364;52.426;9.424;2023-04-28T03:36:31;100946.84;;;6.64;59.63
8653;BME280;4364;52.426;9.424;2023-04-28T03:39:06;100948.06;;;6.57;60.20
8653;BME280;4364;52.426;9.424;2023-04-28T03:41:33;100943.72;;;6.56;59.77
8653;BME280;4364;52.426;9.424;2023-04-28T03:44:25;100947.31;;;6.61;59.54
8653;BME280;4364;52.426;9.424;2023-04-28T03:46:52;100939.13;;;6.56;60.18
8653;BME280;4364;52.426;9.424;2023-04-28T03:49:18;100939.72;;;6.58;60.07
8653;BME280;4364;52.426;9.424;2023-04-28T03:51:44;100922.03;;;6.51;60.14
8653;BME280;4364;52.426;9.424;2023-04-28T03:54:12;100924.09;;;6.60;59.86
8653;BME280;4364;52.426;9.424;2023-04-28T03:56:39;100920.97;;;6.68;59.59
8653;BME280;4364;52.426;9.424;2023-04-28T03:59:06;100912.59;;;6.53;60.02
8653;BME280;4364;52.426;9.424;2023-04-28T04:01:33;100918.50;;;6.50;60.38
8653;BME280;4364;52.426;9.424;2023-04-28T04:03:59;100918.59;;;6.55;60.11
8653;BME280;4364;52.426;9.424;2023-04-28T04:06:26;100918.75;;;6.65;59.16
8653;BME280;4364;52.426;9.424;2023-04-28T04:08:53;100915.97;;;6.60;59.56
8653;BME280;4364;52.426;9.424;2023-04-28T04:11:20;100912.19;;;6.61;59.37
8653;BME280;4364;52.426;9.424;2023-04-28T04:13:46;100902.63;;;6.71;59.73
8653;BME280;4364;52.426;9.424;2023-04-28T04:16:15;100904.59;;;6.75;59.10
8653;BME280;4364;52.426;9.424;2023-04-28T04:18:42;100911.38;;;6.61;59.62
8653;BME280;4364;52.426;9.424;2023-04-28T04:21:15;100908.28;;;6.69;59.47
8653;BME280;4364;52.426;9.424;2023-04-28T04:23:41;100900.91;;;6.64;59.75
8653;BME280;4364;52.426;9.424;2023-04-28T04:26:07;100898.69;;;6.61;59.94
8653;BME280;4364;52.426;9.424;2023-04-28T04:28:35;100890.16;;;6.70;59.51
8653;BME280;4364;52.426;9.424;2023-04-28T04:31:03;100886.00;;;6.79;59.39
8653;BME280;4364;52.426;9.424;2023-04-28T04:33:30;100889.13;;;6.71;59.07
8653;BME280;4364;52.426;9.424;2023-04-28T04:35:57;100891.81;;;6.71;58.54
8653;BME280;4364;52.426;9.424;2023-04-28T04:38:24;100887.22;;;6.71;58.87
8653;BME280;4364;52.426;9.424;2023-04-28T04:40:52;100886.72;;;6.74;58.94
8653;BME280;4364;52.426;9.424;2023-04-28T04:43:18;100886.06;;;6.84;58.60
8653;BME280;4364;52.426;9.424;2023-04-28T04:45:48;100885.66;;;6.92;58.14
8653;BME280;4364;52.426;9.424;2023-04-28T04:48:15;100899.19;;;6.92;58.24
8653;BME280;4364;52.426;9.424;2023-04-28T04:50:42;100879.44;;;6.92;58.30
8653;BME280;4364;52.426;9.424;2023-04-28T04:53:09;100883.69;;;6.88;58.37
8653;BME280;4364;52.426;9.424;2023-04-28T04:55:42;100888.38;;;6.92;58.84
8653;BME280;4364;52.426;9.424;2023-04-28T04:58:08;100891.09;;;7.14;57.64
8653;BME280;4364;52.426;9.424;2023-04-28T05:00:41;100885.94;;;7.13;57.93
8653;BME280;4364;52.426;9.424;2023-04-28T05:03:09;100875.00;;;7.02;57.98
8653;BME280;4364;52.426;9.424;2023-04-28T05:05:38;100872.25;;;7.19;57.89
8653;BME280;4364;52.426;9.424;2023-04-28T05:08:11;100870.88;;;7.17;57.75
8653;BME280;4364;52.426;9.424;2023-04-28T05:10:39;100871.94;;;7.16;57.76
8653;BME280;4364;52.426;9.424;2023-04-28T05:13:05;100864.94;;;7.20;58.10
8653;BME280;4364;52.426;9.424;2023-04-28T05:15:32;100865.78;;;7.42;57.10
8653;BME280;4364;52.426;9.424;2023-04-28T05:18:13;100867.72;;;7.25;57.41
8653;BME280;4364;52.426;9.424;2023-04-28T05:20:40;100858.97;;;7.40;57.58
8653;BME280;4364;52.426;9.424;2023-04-28T05:23:06;100859.69;;;7.30;57.62
8653;BME280;4364;52.426;9.424;2023-04-28T05:25:33;100860.56;;;7.36;57.80
8653;BME280;4364;52.426;9.424;2023-04-28T05:28:00;100863.56;;;7.39;57.79
8653;BME280;4364;52.426;9.424;2023-04-28T05:30:32;100861.50;;;7.47;58.23
8653;BME280;4364;52.426;9.424;2023-04-28T05:32:59;100858.34;;;7.55;58.25
8653;BME280;4364;52.426;9.424;2023-04-28T05:35:26;100861.00;;;7.72;57.13
8653;BME280;4364;52.426;9.424;2023-04-28T05:37:53;100868.06;;;7.78;56.37
8653;BME280;4364;52.426;9.424;2023-04-28T05:40:19;100859.53;;;7.64;57.21
8653;BME280;4364;52.426;9.424;2023-04-28T05:42:46;100858.66;;;7.81;56.51
8653;BME280;4364;52.426;9.424;2023-04-28T05:45:12;100861.84;;;7.77;56.84
8653;BME280;4364;52.426;9.424;2023-04-28T05:47:40;100851.13;;;7.88;56.27
8653;BME280;4364;52.426;9.424;2023-04-28T05:50:06;100847.09;;;7.90;56.79
8653;BME280;4364;52.426;9.424;2023-04-28T05:52:33;100854.56;;;8.05;55.61
8653;BME280;4364;52.426;9.424;2023-04-28T05:55:01;100851.56;;;8.07;55.64
8653;BME280;4364;52.426;9.424;2023-04-28T05:57:28;100853.53;;;8.11;56.07
8653;BME280;4364;52.426;9.424;2023-04-28T05:59:59;100848.78;;;8.24;55.35
8653;BME280;4364;52.426;9.424;2023-04-28T06:02:25;100839.00;;;8.23;55.34
8653;BME280;4364;52.426;9.424;2023-04-28T06:04:54;100835.09;;;8.41;55.11
8653;BME280;4364;52.426;9.424;2023-04-28T06:07:21;100838.16;;;8.49;54.42
8653;BME280;4364;52.426;9.424;2023-04-28T06:09:48;100834.81;;;8.37;54.86
8653;BME280;4364;52.426;9.424;2023-04-28T06:12:15;100833.19;;;8.41;54.49
8653;BME280;4364;52.426;9.424;2023-04-28T06:14:41;100835.19;;;8.51;54.80
8653;BME280;4364;52.426;9.424;2023-04-28T06:17:08;100830.56;;;8.46;54.48
8653;BME280;4364;52.426;9.424;2023-04-28T06:19:34;100829.19;;;8.44;54.68
8653;BME280;4364;52.426;9.424;2023-04-28T06:22:01;100837.19;;;8.61;54.52
8653;BME280;4364;52.426;9.424;2023-04-28T06:24:28;100839.91;;;8.66;54.47
8653;BME280;4364;52.426;9.424;2023-04-28T06:26:56;100845.41;;;8.76;54.39
8653;BME280;4364;52.426;9.424;2023-04-28T06:29:23;100842.72;;;8.81;54.45
8653;BME280;4364;52.426;9.424;2023-04-28T06:31:49;100844.34;;;8.77;54.40
8653;BME280;4364;52.426;9.424;2023-04-28T06:34:18;100845.16;;;8.78;54.85
8653;BME280;4364;52.426;9.424;2023-04-28T06:36:44;100843.53;;;8.82;54.29
8653;BME280;4364;52.426;9.424;2023-04-28T06:39:11;100837.34;;;8.86;55.16
8653;BME280;4364;52.426;9.424;2023-04-28T06:41:38;100831.94;;;8.92;54.85
8653;BME280;4364;52.426;9.424;2023-04-28T06:44:04;100840.16;;;9.07;54.39
8653;BME280;4364;52.426;9.424;2023-04-28T06:46:33;100842.16;;;9.27;54.61
8653;BME280;4364;52.426;9.424;2023-04-28T06:48:59;100816.41;;;9.35;53.72
8653;BME280;4364;52.426;9.424;2023-04-28T06:51:26;100823.50;;;9.41;53.39
8653;BME280;4364;52.426;9.424;2023-04-28T06:53:54;100822.66;;;9.35;54.31
8653;BME280;4364;52.426;9.424;2023-04-28T06:56:20;100824.06;;;9.53;53.71
8653;BME280;4364;52.426;9.424;2023-04-28T06:58:47;100821.16;;;9.80;52.82
8653;BME280;4364;52.426;9.424;2023-04-28T07:01:13;100815.44;;;9.82;52.70
8653;BME280;4364;52.426;9.424;2023-04-28T07:03:40;100820.63;;;9.94;52.55
8653;BME280;4364;52.426;9.424;2023-04-28T07:06:07;100822.53;;;9.93;53.23
8653;BME280;4364;52.426;9.424;2023-04-28T07:08:34;100820.09;;;10.02;51.39
8653;BME280;4364;52.426;9.424;2023-04-28T07:11:01;100816.31;;;9.98;52.20
8653;BME280;4364;52.426;9.424;2023-04-28T07:13:32;100823.06;;;10.00;51.69
8653;BME280;4364;52.426;9.424;2023-04-28T07:15:58;100825.53;;;10.02;52.07
8653;BME280;4364;52.426;9.424;2023-04-28T07:18:25;100827.44;;;10.17;52.05
8653;BME280;4364;52.426;9.424;2023-04-28T07:20:52;100814.72;;;10.33;50.98
8653;BME280;4364;52.426;9.424;2023-04-28T07:23:18;100821.78;;;10.34;51.65
8653;BME280;4364;52.426;9.424;2023-04-28T07:25:44;100816.06;;;10.41;50.85
8653;BME280;4364;52.426;9.424;2023-04-28T07:28:11;100811.97;;;10.53;50.18
8653;BME280;4364;52.426;9.424;2023-04-28T07:30:39;100807.34;;;10.64;50.44
8653;BME280;4364;52.426;9.424;2023-04-28T07:33:05;100811.41;;;10.67;50.51
8653;BME280;4364;52.426;9.424;2023-04-28T07:35:32;100815.75;;;10.83;49.50
8653;BME280;4364;52.426;9.424;2023-04-28T07:37:58;100804.84;;;10.88;49.31
8653;BME280;4364;52.426;9.424;2023-04-28T07:40:26;100808.41;;;10.79;49.96
8653;BME280;4364;52.426;9.424;2023-04-28T07:42:52;100803.75;;;10.79;50.05
8653;BME280;4364;52.426;9.424;2023-04-28T07:45:19;100801.88;;;10.85;48.89
8653;BME280;4364;52.426;9.424;2023-04-28T07:47:46;100802.69;;;10.80;49.59
8653;BME280;4364;52.426;9.424;2023-04-28T07:50:12;100796.16;;;10.86;49.49
8653;BME280;4364;52.426;9.424;2023-04-28T07:52:39;100796.69;;;10.88;49.99
8653;BME280;4364;52.426;9.424;2023-04-28T07:55:05;100799.38;;;10.93;49.91
8653;BME280;4364;52.426;9.424;2023-04-28T07:57:32;100787.66;;;11.03;50.14
8653;BME280;4364;52.426;9.424;2023-04-28T07:59:59;100790.13;;;11.00;49.52
8653;BME280;4364;52.426;9.424;2023-04-28T08:02:37;100788.97;;;11.21;49.60
8653;BME280;4364;52.426;9.424;2023-04-28T08:05:03;100781.28;;;11.28;49.24
8653;BME280;4364;52.426;9.424;2023-04-28T08:07:32;100780.22;;;11.24;48.74
8653;BME280;4364;52.426;9.424;2023-04-28T08:09:58;100784.25;;;11.32;48.90
8653;BME280;4364;52.426;9.424;2023-04-28T08:12:26;100784.53;;;11.30;48.67
8653;BME280;4364;52.426;9.424;2023-04-28T08:14:52;100777.94;;;11.47;48.36
8653;BME280;4364;52.426;9.424;2023-04-28T08:17:19;100771.38;;;11.53;47.88
8653;BME280;4364;52.426;9.424;2023-04-28T08:19:45;100773.94;;;11.29;48.63
8653;BME280;4364;52.426;9.424;2023-04-28T08:22:12;100773.88;;;11.44;48.59
8653;BME280;4364;52.426;9.424;2023-04-28T08:24:39;100762.31;;;11.63;48.26
8653;BME280;4364;52.426;9.424;2023-04-28T08:27:05;100770.47;;;11.68;48.56
8653;BME280;4364;52.426;9.424;2023-04-28T08:29:32;100769.91;;;11.71;47.97
8653;BME280;4364;52.426;9.424;2023-04-28T08:31:59;100769.66;;;11.62;48.55
8653;BME280;4364;52.426;9.424;2023-04-28T08:34:27;100779.19;;;11.65;48.80
8653;BME280;4364;52.426;9.424;2023-04-28T08:36:54;100783.28;;;11.62;48.79
8653;BME280;4364;52.426;9.424;2023-04-28T08:39:21;100778.06;;;11.71;49.37
8653;BME280;4364;52.426;9.424;2023-04-28T08:41:48;100778.56;;;11.78;49.06
8653;BME280;4364;52.426;9.424;2023-04-28T08:44:15;100780.63;;;11.97;49.06
8653;BME280;4364;52.426;9.424;2023-04-28T08:46:44;100778.75;;;11.92;48.82
8653;BME280;4364;52.426;9.424;2023-04-28T08:49:16;100773.44;;;11.72;48.61
8653;BME280;4364;52.426;9.424;2023-04-28T08:51:45;100775.91;;;11.68;48.97
8653;BME280;4364;52.426;9.424;2023-04-28T08:54:16;100762.50;;;11.77;48.88
8653;BME280;4364;52.426;9.424;2023-04-28T08:56:56;100762.47;;;11.82;49.36
8653;BME280;4364;52.426;9.424;2023-04-28T08:59:23;100765.47;;;11.80;49.11
8653;BME280;4364;52.426;9.424;2023-04-28T09:01:49;100767.63;;;11.83;49.50
8653;BME280;4364;52.426;9.424;2023-04-28T09:04:17;100760.28;;;11.79;49.52
8653;BME280;4364;52.426;9.424;2023-04-28T09:06:45;100757.59;;;11.74;50.19
8653;BME280;4364;52.426;9.424;2023-04-28T09:09:21;100756.25;;;11.76;49.56
8653;BME280;4364;52.426;9.424;2023-04-28T09:11:58;100746.72;;;11.74;49.61
8653;BME280;4364;52.426;9.424;2023-04-28T09:14:27;100748.13;;;11.66;50.83
8653;BME280;4364;52.426;9.424;2023-04-28T09:16:55;100745.69;;;11.64;51.04
8653;BME280;4364;52.426;9.424;2023-04-28T09:19:22;100753.00;;;11.69;51.84
8653;BME280;4364;52.426;9.424;2023-04-28T09:21:51;100751.84;;;11.80;51.49
8653;BME280;4364;52.426;9.424;2023-04-28T09:24:25;100750.31;;;11.64;52.13
8653;BME280;4364;52.426;9.424;2023-04-28T09:26:52;100750.06;;;11.60;52.45
8653;BME280;4364;52.426;9.424;2023-04-28T09:29:21;100749.03;;;11.56;52.76
8653;BME280;4364;52.426;9.424;2023-04-28T09:31:48;100743.31;;;11.53;53.08
8653;BME280;4364;52.426;9.424;2023-04-28T09:34:14;100746.03;;;11.58;52.23
8653;BME280;4364;52.426;9.424;2023-04-28T09:36:41;100747.56;;;11.69;51.80
8653;BME280;4364;52.426;9.424;2023-04-28T09:39:08;100745.84;;;11.83;51.87
8653;BME280;4364;52.426;9.424;2023-04-28T09:41:39;100749.72;;;11.72;52.12
8653;BME280;4364;52.426;9.424;2023-04-28T09:44:17;100749.00;;;11.61;51.69
8653;BME280;4364;52.426;9.424;2023-04-28T09:46:45;100756.91;;;11.58;52.13
8653;BME280;4364;52.426;9.424;2023-04-28T09:49:12;100753.03;;;11.64;52.40
8653;BME280;4364;52.426;9.424;2023-04-28T09:51:40;100753.19;;;11.83;51.57
8653;BME280;4364;52.426;9.424;2023-04-28T09:54:06;100755.09;;;11.82;52.04
8653;BME280;4364;52.426;9.424;2023-04-28T09:56:34;100747.16;;;11.86;51.99
8653;BME280;4364;52.426;9.424;2023-04-28T09:59:06;100738.34;;;12.04;51.16
8653;BME280;4364;52.426;9.424;2023-04-28T10:01:36;100741.31;;;12.08;51.07
8653;BME280;4364;52.426;9.424;2023-04-28T10:04:07;100734.50;;;12.05;51.33
8653;BME280;4364;52.426;9.424;2023-04-28T10:06:34;100738.31;;;12.10;51.28
8653;BME280;4364;52.426;9.424;2023-04-28T10:09:02;100743.66;;;12.20;52.46
8653;BME280;4364;52.426;9.424;2023-04-28T10:11:29;100731.00;;;12.29;53.23
8653;BME280;4364;52.426;9.424;2023-04-28T10:13:56;100731.91;;;12.49;54.90
8653;BME280;4364;52.426;9.424;2023-04-28T10:16:22;100734.75;;;12.63;54.35
8653;BME280;4364;52.426;9.424;2023-04-28T10:18:50;100733.78;;;12.53;54.31
8653;BME280;4364;52.426;9.424;2023-04-28T10:21:20;100728.22;;;12.64;52.66
8653;BME280;4364;52.426;9.424;2023-04-28T10:24:09;100740.84;;;12.54;53.64
8653;BME280;4364;52.426;9.424;2023-04-28T10:27:02;100738.19;;;12.73;52.31
8653;BME280;4364;52.426;9.424;2023-04-28T10:29:31;100740.06;;;12.78;52.03
8653;BME280;4364;52.426;9.424;2023-04-28T10:32:17;100730.19;;;12.82;52.22
8653;BME280;4364;52.426;9.424;2023-04-28T10:34:44;100732.34;;;12.85;52.13
8653;BME280;4364;52.426;9.424;2023-04-28T10:37:11;100716.13;;;12.94;51.46
8653;BME280;4364;52.426;9.424;2023-04-28T10:39:41;100713.38;;;13.18;52.27
8653;BME280;4364;52.426;9.424;2023-04-28T10:42:50;100720.34;;;13.48;51.68
8653;BME280;4364;52.426;9.424;2023-04-28T10:56:11;100691.34;;;14.46;49.10
8653;BME280;4364;52.426;9.424;2023-04-28T10:58:38;100694.81;;;14.52;49.30
8653;BME280;4364;52.426;9.424;2023-04-28T11:06:40;100688.59;;;14.46;48.81
8653;BME280;4364;52.426;9.424;2023-04-28T11:12:03;100674.28;;;14.07;48.79
8653;BME280;4364;52.426;9.424;2023-04-28T11:14:37;100684.13;;;14.22;48.99
8653;BME280;4364;52.426;9.424;2023-04-28T11:17:09;100678.75;;;14.31;49.26
8653;BME280;4364;52.426;9.424;2023-04-28T11:19:43;100674.41;;;14.30;48.99
8653;BME280;4364;52.426;9.424;2023-04-28T11:22:15;100674.19;;;14.13;49.66
8653;BME280;4364;52.426;9.424;2023-04-28T11:25:01;100667.41;;;14.10;49.79
8653;BME280;4364;52.426;9.424;2023-04-28T11:27:30;100671.25;;;14.09;49.67
8653;BME280;4364;52.426;9.424;2023-04-28T11:29:58;100669.84;;;14.12;50.01
8653;BME280;4364;52.426;9.424;2023-04-28T11:32:31;100665.75;;;13.95;50.77
8653;BME280;4364;52.426;9.424;2023-04-28T11:34:59;100664.78;;;14.19;50.07
8653;BME280;4364;52.426;9.424;2023-04-28T11:37:27;100670.84;;;14.16;50.21
8653;BME280;4364;52.426;9.424;2023-04-28T11:39:54;100665.78;;;14.09;50.09
8653;BME280;4364;52.426;9.424;2023-04-28T11:42:20;100667.06;;;13.98;50.86
8653;BME280;4364;52.426;9.424;2023-04-28T11:44:51;100665.53;;;13.92;50.52
8653;BME280;4364;52.426;9.424;2023-04-28T11:47:28;100666.53;;;13.82;51.18
8653;BME280;4364;52.426;9.424;2023-04-28T11:49:55;100673.66;;;13.97;51.12
8653;BME280;4364;52.426;9.424;2023-04-28T11:52:22;100666.84;;;13.94;50.95
8653;BME280;4364;52.426;9.424;2023-04-28T11:54:53;100664.00;;;13.85;51.81
8653;BME280;4364;52.426;9.424;2023-04-28T11:57:21;100664.59;;;13.82;54.29
8653;BME280;4364;52.426;9.424;2023-04-28T11:59:49;100661.56;;;13.84;55.80
8653;BME280;4364;52.426;9.424;2023-04-28T12:02:26;100665.06;;;13.70;56.82
8653;BME280;4364;52.426;9.424;2023-04-28T12:04:55;100670.88;;;13.83;57.54
8653;BME280;4364;52.426;9.424;2023-04-28T12:07:21;100670.72;;;13.60;57.67
8653;BME280;4364;52.426;9.424;2023-04-28T12:10:11;100659.28;;;13.58;58.20
8653;BME280;4364;52.426;9.424;2023-04-28T12:12:38;100651.50;;;13.46;57.55
8653;BME280;4364;52.426;9.424;2023-04-28T12:15:17;100648.84;;;13.41;58.53
8653;BME280;4364;52.426;9.424;2023-04-28T12:17:47;100639.03;;;13.59;57.92
8653;BME280;4364;52.426;9.424;2023-04-28T12:20:37;100633.91;;;13.71;58.09
8653;BME280;4364;52.426;9.424;2023-04-28T12:23:05;100626.31;;;13.68;58.97
8653;BME280;4364;52.426;9.424;2023-04-28T12:25:42;100629.91;;;13.97;59.77
8653;BME280;4364;52.426;9.424;2023-04-28T12:28:08;100633.66;;;14.15;59.89
8653;BME280;4364;52.426;9.424;2023-04-28T12:30:36;100638.53;;;14.18;56.91
8653;BME280;4364;52.426;9.424;2023-04-28T12:33:25;100632.34;;;13.98;57.10
8653;BME280;4364;52.426;9.424;2023-04-28T12:35:53;100633.34;;;14.02;56.76
8653;BME280;4364;52.426;9.424;2023-04-28T12:38:21;100630.34;;;14.18;56.50
8653;BME280;4364;52.426;9.424;2023-04-28T12:40:47;100620.63;;;14.12;56.60
8653;BME280;4364;52.426;9.424;2023-04-28T12:43:14;100625.34;;;14.06;55.88
8653;BME280;4364;52.426;9.424;2023-04-28T12:45:40;100621.28;;;13.89;57.18
8653;BME280;4364;52.426;9.424;2023-04-28T12:48:07;100622.44;;;14.30;56.10
8653;BME280;4364;52.426;9.424;2023-04-28T12:50:34;100615.16;;;14.39;55.97
8653;BME280;4364;52.426;9.424;2023-04-28T12:53:00;100615.16;;;14.25;56.29
8653;BME280;4364;52.426;9.424;2023-04-28T12:55:28;100609.78;;;14.34;55.80
8653;BME280;4364;52.426;9.424;2023-04-28T12:57:54;100606.75;;;14.36;56.14
8653;BME280;4364;52.426;9.424;2023-04-28T13:00:21;100615.25;;;14.20;56.62
8653;BME280;4364;52.426;9.424;2023-04-28T13:02:48;100604.50;;;14.24;56.28
8653;BME280;4364;52.426;9.424;2023-04-28T13:05:15;100603.91;;;14.27;56.20
8653;BME280;4364;52.426;9.424;2023-04-28T13:07:42;100594.88;;;14.40;56.21
8653;BME280;4364;52.426;9.424;2023-04-28T13:10:08;100605.63;;;14.23;56.22
8653;BME280;4364;52.426;9.424;2023-04-28T13:12:35;100603.09;;;14.13;56.64
8653;BME280;4364;52.426;9.424;2023-04-28T13:15:02;100601.19;;;14.27;56.01
8653;BME280;4364;52.426;9.424;2023-04-28T13:17:29;100596.81;;;14.12;56.76
8653;BME280;4364;52.426;9.424;2023-04-28T13:19:56;100588.81;;;14.16;56.50
8653;BME280;4364;52.426;9.424;2023-04-28T13:22:22;100585.88;;;14.26;56.78
8653;BME280;4364;52.426;9.424;2023-04-28T13:24:48;100589.72;;;14.39;56.35
8653;BME280;4364;52.426;9.424;2023-04-28T13:27:15;100589.00;;;14.47;55.96
8653;BME280;4364;52.426;9.424;2023-04-28T13:29:42;100586.47;;;14.51;55.67
8653;BME280;4364;52.426;9.424;2023-04-28T13:32:08;100588.50;;;14.45;56.15
8653;BME280;4364;52.426;9.424;2023-04-28T13:34:35;100588.19;;;14.33;56.45
8653;BME280;4364;52.426;9.424;2023-04-28T13:37:03;100572.50;;;14.38;56.17
8653;BME280;4364;52.426;9.424;2023-04-28T13:39:30;100585.06;;;14.25;56.70
8653;BME280;4364;52.426;9.424;2023-04-28T13:41:56;100583.44;;;14.11;57.21